sensor_id;sensor_type;location;lat;lon;timestamp;P1;durP1;ratioP1;P2;durP2;ratioP2
74892;SDS011;63446;56.272;43.922;2023-07-20T00:01:44;9.63;;;2.50;;
74892;SDS011;63446;56.272;43.922;2023-07-20T00:04:11;5.97;;;2.03;;
74892;SDS011;63446;56.272;43.922;2023-07-20T00:06:38;6.75;;;2.00;;
74892;SDS011;63446;56.272;43.922;2023-07-20T00:09:07;5.05;;;2.13;;
74892;SDS011;63446;56.272;43.922;2023-07-20T00:11:35;5.30;;;2.05;;
74892;SDS011;63446;56.272;43.922;2023-07-20T00:14:02;4.77;;;1.70;;
74892;SDS011;63446;56.272;43.922;2023-07-20T00:16:28;4.57;;;1.90;;
74892;SDS011;63446;56.272;43.922;2023-07-20T00:18:54;4.80;;;1.90;;
74892;SDS011;63446;56.272;43.922;2023-07-20T00:21:20;4.47;;;1.90;;
74892;SDS011;63446;56.272;43.922;2023-07-20T00:23:46;6.25;;;1.70;;
74892;SDS011;63446;56.272;43.922;2023-07-20T00:26:12;7.23;;;1.73;;
74892;SDS011;63446;56.272;43.922;2023-07-20T00:28:38;4.38;;;1.80;;
74892;SDS011;63446;56.272;43.922;2023-07-20T00:31:04;5.30;;;1.90;;
74892;SDS011;63446;56.272;43.922;2023-07-20T00:33:30;8.55;;;1.83;;
74892;SDS011;63446;56.272;43.922;2023-07-20T00:35:56;6.40;;;1.60;;
74892;SDS011;63446;56.272;43.922;2023-07-20T00:38:22;4.88;;;1.80;;
74892;SDS011;63446;56.272;43.922;2023-07-20T00:40:48;7.30;;;1.77;;
74892;SDS011;63446;56.272;43.922;2023-07-20T00:43:17;4.47;;;1.67;;
74892;SDS011;63446;56.272;43.922;2023-07-20T00:45:43;8.35;;;1.98;;
74892;SDS011;63446;56.272;43.922;2023-07-20T00:48:10;5.57;;;1.80;;
74892;SDS011;63446;56.272;43.922;2023-07-20T00:50:37;5.97;;;1.77;;
74892;SDS011;63446;56.272;43.922;2023-07-20T00:53:05;9.25;;;1.88;;
74892;SDS011;63446;56.272;43.922;2023-07-20T00:55:32;4.93;;;1.60;;
74892;SDS011;63446;56.272;43.922;2023-07-20T00:57:59;5.13;;;1.52;;
74892;SDS011;63446;56.272;43.922;2023-07-20T01:00:26;7.47;;;1.60;;
74892;SDS011;63446;56.272;43.922;2023-07-20T01:02:53;8.73;;;2.13;;
74892;SDS011;63446;56.272;43.922;2023-07-20T01:05:20;5.38;;;1.60;;
74892;SDS011;63446;56.272;43.922;2023-07-20T01:10:25;6.55;;;1.77;;
74892;SDS011;63446;56.272;43.922;2023-07-20T01:12:59;4.20;;;1.42;;
74892;SDS011;63446;56.272;43.922;2023-07-20T01:15:26;4.57;;;1.77;;
74892;SDS011;63446;56.272;43.922;2023-07-20T01:17:52;7.28;;;1.63;;
74892;SDS011;63446;56.272;43.922;2023-07-20T01:20:20;6.47;;;1.92;;
74892;SDS011;63446;56.272;43.922;2023-07-20T01:28:57;4.23;;;1.50;;
74892;SDS011;63446;56.272;43.922;2023-07-20T01:31:36;9.55;;;1.70;;
74892;SDS011;63446;56.272;43.922;2023-07-20T01:34:04;5.93;;;1.67;;
74892;SDS011;63446;56.272;43.922;2023-07-20T01:36:35;3.50;;;1.30;;
74892;SDS011;63446;56.272;43.922;2023-07-20T01:39:03;7.10;;;1.60;;
74892;SDS011;63446;56.272;43.922;2023-07-20T01:41:30;4.13;;;1.43;;
74892;SDS011;63446;56.272;43.922;2023-07-20T01:43:59;5.03;;;1.60;;
74892;SDS011;63446;56.272;43.922;2023-07-20T01:46:27;5.50;;;1.42;;
74892;SDS011;63446;56.272;43.922;2023-07-20T01:48:54;5.30;;;1.48;;
74892;SDS011;63446;56.272;43.922;2023-07-20T01:51:21;3.90;;;1.48;;
74892;SDS011;63446;56.272;43.922;2023-07-20T01:53:48;3.93;;;1.70;;
74892;SDS011;63446;56.272;43.922;2023-07-20T01:56:14;4.60;;;2.00;;
74892;SDS011;63446;56.272;43.922;2023-07-20T01:58:40;4.20;;;1.48;;
74892;SDS011;63446;56.272;43.922;2023-07-20T02:01:06;4.68;;;1.30;;
74892;SDS011;63446;56.272;43.922;2023-07-20T02:03:32;6.83;;;1.63;;
74892;SDS011;63446;56.272;43.922;2023-07-20T02:05:58;6.30;;;1.60;;
74892;SDS011;63446;56.272;43.922;2023-07-20T02:08:25;4.00;;;1.45;;
74892;SDS011;63446;56.272;43.922;2023-07-20T02:10:54;11.65;;;1.65;;
74892;SDS011;63446;56.272;43.922;2023-07-20T02:13:19;8.17;;;1.70;;
74892;SDS011;63446;56.272;43.922;2023-07-20T02:15:45;5.60;;;1.70;;
74892;SDS011;63446;56.272;43.922;2023-07-20T02:18:13;7.40;;;1.70;;
74892;SDS011;63446;56.272;43.922;2023-07-20T02:20:40;9.25;;;1.50;;
74892;SDS011;63446;56.272;43.922;2023-07-20T02:23:06;4.32;;;1.23;;
74892;SDS011;63446;56.272;43.922;2023-07-20T02:25:33;4.03;;;1.20;;
74892;SDS011;63446;56.272;43.922;2023-07-20T02:27:58;6.40;;;1.83;;
74892;SDS011;63446;56.272;43.922;2023-07-20T02:30:25;4.97;;;1.60;;
74892;SDS011;63446;56.272;43.922;2023-07-20T02:32:52;6.28;;;1.60;;
74892;SDS011;63446;56.272;43.922;2023-07-20T02:35:18;4.45;;;1.60;;
74892;SDS011;63446;56.272;43.922;2023-07-20T02:37:45;9.38;;;1.95;;
74892;SDS011;63446;56.272;43.922;2023-07-20T02:40:11;4.73;;;1.57;;
74892;SDS011;63446;56.272;43.922;2023-07-20T02:42:36;4.03;;;1.30;;
74892;SDS011;63446;56.272;43.922;2023-07-20T02:45:03;7.38;;;1.50;;
74892;SDS011;63446;56.272;43.922;2023-07-20T02:47:34;6.60;;;1.60;;
74892;SDS011;63446;56.272;43.922;2023-07-20T02:49:59;4.17;;;1.40;;
74892;SDS011;63446;56.272;43.922;2023-07-20T02:52:26;7.25;;;1.85;;
74892;SDS011;63446;56.272;43.922;2023-07-20T02:54:51;5.80;;;1.40;;
74892;SDS011;63446;56.272;43.922;2023-07-20T02:57:17;6.30;;;1.53;;
74892;SDS011;63446;56.272;43.922;2023-07-20T02:59:43;6.82;;;1.55;;
74892;SDS011;63446;56.272;43.922;2023-07-20T03:02:09;5.85;;;1.30;;
74892;SDS011;63446;56.272;43.922;2023-07-20T03:04:36;8.18;;;1.67;;
74892;SDS011;63446;56.272;43.922;2023-07-20T03:07:04;3.53;;;1.37;;
74892;SDS011;63446;56.272;43.922;2023-07-20T03:09:32;6.85;;;1.70;;
74892;SDS011;63446;56.272;43.922;2023-07-20T03:11:58;9.93;;;1.77;;
74892;SDS011;63446;56.272;43.922;2023-07-20T03:14:23;5.43;;;1.60;;
74892;SDS011;63446;56.272;43.922;2023-07-20T03:16:49;7.68;;;1.70;;
74892;SDS011;63446;56.272;43.922;2023-07-20T03:19:16;8.07;;;2.20;;
74892;SDS011;63446;56.272;43.922;2023-07-20T03:21:42;5.45;;;1.80;;
74892;SDS011;63446;56.272;43.922;2023-07-20T03:24:09;8.73;;;1.80;;
74892;SDS011;63446;56.272;43.922;2023-07-20T03:26:35;5.97;;;1.70;;
74892;SDS011;63446;56.272;43.922;2023-07-20T03:29:04;8.10;;;1.50;;
74892;SDS011;63446;56.272;43.922;2023-07-20T03:31:31;5.97;;;1.75;;
74892;SDS011;63446;56.272;43.922;2023-07-20T03:33:57;6.97;;;1.80;;
74892;SDS011;63446;56.272;43.922;2023-07-20T03:36:23;10.67;;;1.73;;
74892;SDS011;63446;56.272;43.922;2023-07-20T03:38:49;8.15;;;1.85;;
74892;SDS011;63446;56.272;43.922;2023-07-20T03:41:15;6.43;;;2.00;;
74892;SDS011;63446;56.272;43.922;2023-07-20T03:43:42;7.03;;;2.23;;
74892;SDS011;63446;56.272;43.922;2023-07-20T03:46:08;5.10;;;2.00;;
74892;SDS011;63446;56.272;43.922;2023-07-20T03:48:34;11.68;;;2.38;;
74892;SDS011;63446;56.272;43.922;2023-07-20T03:51:00;5.50;;;2.10;;
74892;SDS011;63446;56.272;43.922;2023-07-20T03:53:26;6.90;;;1.90;;
74892;SDS011;63446;56.272;43.922;2023-07-20T03:55:53;8.17;;;2.10;;
74892;SDS011;63446;56.272;43.922;2023-07-20T03:58:19;5.78;;;2.15;;
74892;SDS011;63446;56.272;43.922;2023-07-20T04:00:48;6.53;;;1.92;;
74892;SDS011;63446;56.272;43.922;2023-07-20T04:03:18;5.75;;;1.80;;
74892;SDS011;63446;56.272;43.922;2023-07-20T04:05:44;5.43;;;1.80;;
74892;SDS011;63446;56.272;43.922;2023-07-20T04:08:11;5.90;;;1.80;;
74892;SDS011;63446;56.272;43.922;2023-07-20T04:10:37;5.93;;;1.75;;
74892;SDS011;63446;56.272;43.922;2023-07-20T04:13:04;6.97;;;1.90;;
74892;SDS011;63446;56.272;43.922;2023-07-20T04:15:31;7.80;;;1.90;;
74892;SDS011;63446;56.272;43.922;2023-07-20T04:17:57;6.20;;;2.00;;
74892;SDS011;63446;56.272;43.922;2023-07-20T04:20:23;9.38;;;2.40;;
74892;SDS011;63446;56.272;43.922;2023-07-20T04:22:50;12.88;;;2.70;;
74892;SDS011;63446;56.272;43.922;2023-07-20T04:25:17;9.50;;;2.40;;
74892;SDS011;63446;56.272;43.922;2023-07-20T04:27:45;7.13;;;2.20;;
74892;SDS011;63446;56.272;43.922;2023-07-20T04:30:12;7.13;;;1.93;;
74892;SDS011;63446;56.272;43.922;2023-07-20T04:32:39;4.88;;;2.00;;
74892;SDS011;63446;56.272;43.922;2023-07-20T04:35:16;8.38;;;1.90;;
74892;SDS011;63446;56.272;43.922;2023-07-20T04:37:45;7.95;;;2.13;;
74892;SDS011;63446;56.272;43.922;2023-07-20T04:40:15;6.35;;;2.00;;
74892;SDS011;63446;56.272;43.922;2023-07-20T04:42:41;10.63;;;2.27;;
74892;SDS011;63446;56.272;43.922;2023-07-20T04:45:07;5.57;;;2.30;;
74892;SDS011;63446;56.272;43.922;2023-07-20T04:47:35;6.15;;;2.53;;
74892;SDS011;63446;56.272;43.922;2023-07-20T04:50:01;6.10;;;2.20;;
74892;SDS011;63446;56.272;43.922;2023-07-20T04:52:29;7.57;;;2.20;;
74892;SDS011;63446;56.272;43.922;2023-07-20T04:54:56;3.97;;;2.00;;
74892;SDS011;63446;56.272;43.922;2023-07-20T04:57:23;8.10;;;2.20;;
74892;SDS011;63446;56.272;43.922;2023-07-20T04:59:49;5.90;;;1.80;;
74892;SDS011;63446;56.272;43.922;2023-07-20T05:02:15;5.45;;;2.10;;
74892;SDS011;63446;56.272;43.922;2023-07-20T05:04:41;7.07;;;2.30;;
74892;SDS011;63446;56.272;43.922;2023-07-20T05:07:07;6.43;;;2.15;;
74892;SDS011;63446;56.272;43.922;2023-07-20T05:09:33;6.15;;;2.63;;
74892;SDS011;63446;56.272;43.922;2023-07-20T05:11:59;5.07;;;2.90;;
74892;SDS011;63446;56.272;43.922;2023-07-20T05:14:26;11.80;;;2.67;;
74892;SDS011;63446;56.272;43.922;2023-07-20T05:16:52;4.63;;;2.00;;
74892;SDS011;63446;56.272;43.922;2023-07-20T05:19:18;5.45;;;2.20;;
74892;SDS011;63446;56.272;43.922;2023-07-20T05:21:44;5.27;;;2.00;;
74892;SDS011;63446;56.272;43.922;2023-07-20T05:24:09;10.60;;;2.40;;
74892;SDS011;63446;56.272;43.922;2023-07-20T05:26:36;5.78;;;2.50;;
74892;SDS011;63446;56.272;43.922;2023-07-20T05:29:01;6.63;;;2.23;;
74892;SDS011;63446;56.272;43.922;2023-07-20T05:31:28;9.20;;;3.13;;
74892;SDS011;63446;56.272;43.922;2023-07-20T05:33:56;8.85;;;2.30;;
74892;SDS011;63446;56.272;43.922;2023-07-20T05:36:22;6.55;;;2.40;;
74892;SDS011;63446;56.272;43.922;2023-07-20T05:38:48;21.20;;;2.70;;
74892;SDS011;63446;56.272;43.922;2023-07-20T05:41:14;7.00;;;1.90;;
74892;SDS011;63446;56.272;43.922;2023-07-20T05:43:40;6.82;;;2.17;;
74892;SDS011;63446;56.272;43.922;2023-07-20T05:46:07;6.40;;;2.10;;
74892;SDS011;63446;56.272;43.922;2023-07-20T05:48:34;7.03;;;2.40;;
74892;SDS011;63446;56.272;43.922;2023-07-20T05:51:01;4.82;;;2.17;;
74892;SDS011;63446;56.272;43.922;2023-07-20T05:53:27;10.80;;;1.90;;
74892;SDS011;63446;56.272;43.922;2023-07-20T05:55:53;7.18;;;2.00;;
74892;SDS011;63446;56.272;43.922;2023-07-20T05:58:20;7.40;;;2.20;;
74892;SDS011;63446;56.272;43.922;2023-07-20T06:00:49;5.70;;;2.97;;
74892;SDS011;63446;56.272;43.922;2023-07-20T06:03:16;6.00;;;2.08;;
74892;SDS011;63446;56.272;43.922;2023-07-20T06:05:45;7.60;;;2.45;;
74892;SDS011;63446;56.272;43.922;2023-07-20T06:08:10;8.27;;;2.20;;
74892;SDS011;63446;56.272;43.922;2023-07-20T06:10:37;7.57;;;2.23;;
74892;SDS011;63446;56.272;43.922;2023-07-20T06:13:03;6.20;;;2.30;;
74892;SDS011;63446;56.272;43.922;2023-07-20T06:15:31;5.53;;;2.58;;
74892;SDS011;63446;56.272;43.922;2023-07-20T06:18:00;4.83;;;2.13;;
74892;SDS011;63446;56.272;43.922;2023-07-20T06:20:26;6.60;;;2.00;;
74892;SDS011;63446;56.272;43.922;2023-07-20T06:22:53;7.35;;;2.58;;
74892;SDS011;63446;56.272;43.922;2023-07-20T06:25:19;5.28;;;2.38;;
74892;SDS011;63446;56.272;43.922;2023-07-20T06:27:48;6.82;;;2.33;;
74892;SDS011;63446;56.272;43.922;2023-07-20T06:30:15;16.40;;;2.80;;
74892;SDS011;63446;56.272;43.922;2023-07-20T06:32:41;7.35;;;2.17;;
74892;SDS011;63446;56.272;43.922;2023-07-20T06:35:07;4.68;;;2.15;;
74892;SDS011;63446;56.272;43.922;2023-07-20T06:37:34;7.37;;;2.13;;
74892;SDS011;63446;56.272;43.922;2023-07-20T06:40:02;4.60;;;1.90;;
74892;SDS011;63446;56.272;43.922;2023-07-20T06:42:30;6.65;;;1.90;;
74892;SDS011;63446;56.272;43.922;2023-07-20T06:44:56;6.15;;;1.75;;
74892;SDS011;63446;56.272;43.922;2023-07-20T06:47:23;6.28;;;1.83;;
74892;SDS011;63446;56.272;43.922;2023-07-20T06:49:48;7.43;;;1.93;;
74892;SDS011;63446;56.272;43.922;2023-07-20T06:52:15;7.05;;;1.92;;
74892;SDS011;63446;56.272;43.922;2023-07-20T06:54:41;5.28;;;2.03;;
74892;SDS011;63446;56.272;43.922;2023-07-20T06:57:07;6.17;;;1.90;;
74892;SDS011;63446;56.272;43.922;2023-07-20T06:59:33;4.82;;;1.80;;
74892;SDS011;63446;56.272;43.922;2023-07-20T07:01:59;4.75;;;1.75;;
74892;SDS011;63446;56.272;43.922;2023-07-20T07:04:25;4.38;;;1.80;;
74892;SDS011;63446;56.272;43.922;2023-07-20T07:06:51;5.57;;;1.90;;
74892;SDS011;63446;56.272;43.922;2023-07-20T07:09:17;4.57;;;1.90;;
74892;SDS011;63446;56.272;43.922;2023-07-20T07:11:44;6.57;;;1.83;;
74892;SDS011;63446;56.272;43.922;2023-07-20T07:14:11;4.83;;;1.80;;
74892;SDS011;63446;56.272;43.922;2023-07-20T07:16:38;17.52;;;2.30;;
74892;SDS011;63446;56.272;43.922;2023-07-20T07:19:05;8.38;;;1.95;;
74892;SDS011;63446;56.272;43.922;2023-07-20T07:21:34;6.07;;;1.90;;
74892;SDS011;63446;56.272;43.922;2023-07-20T07:23:59;7.67;;;1.90;;
74892;SDS011;63446;56.272;43.922;2023-07-20T07:26:25;7.68;;;2.08;;
74892;SDS011;63446;56.272;43.922;2023-07-20T07:28:52;6.70;;;2.00;;
74892;SDS011;63446;56.272;43.922;2023-07-20T07:31:18;5.13;;;1.83;;
74892;SDS011;63446;56.272;43.922;2023-07-20T07:33:44;11.02;;;1.80;;
74892;SDS011;63446;56.272;43.922;2023-07-20T07:36:09;5.00;;;1.60;;
74892;SDS011;63446;56.272;43.922;2023-07-20T07:38:35;7.53;;;1.70;;
74892;SDS011;63446;56.272;43.922;2023-07-20T07:41:01;12.35;;;1.75;;
74892;SDS011;63446;56.272;43.922;2023-07-20T07:43:27;5.53;;;1.60;;
74892;SDS011;63446;56.272;43.922;2023-07-20T07:45:54;18.65;;;2.10;;
74892;SDS011;63446;56.272;43.922;2023-07-20T07:48:21;12.68;;;2.28;;
74892;SDS011;63446;56.272;43.922;2023-07-20T07:50:47;6.70;;;1.50;;
74892;SDS011;63446;56.272;43.922;2023-07-20T07:53:13;7.53;;;1.80;;
74892;SDS011;63446;56.272;43.922;2023-07-20T07:55:39;7.53;;;2.03;;
74892;SDS011;63446;56.272;43.922;2023-07-20T07:58:07;5.65;;;1.98;;
74892;SDS011;63446;56.272;43.922;2023-07-20T08:00:34;8.35;;;2.05;;
74892;SDS011;63446;56.272;43.922;2023-07-20T08:02:59;9.37;;;1.80;;
74892;SDS011;63446;56.272;43.922;2023-07-20T08:05:25;5.75;;;1.63;;
74892;SDS011;63446;56.272;43.922;2023-07-20T08:07:51;8.40;;;1.50;;
74892;SDS011;63446;56.272;43.922;2023-07-20T08:10:18;6.80;;;1.83;;
74892;SDS011;63446;56.272;43.922;2023-07-20T08:12:44;5.63;;;1.87;;
74892;SDS011;63446;56.272;43.922;2023-07-20T08:15:13;11.10;;;1.90;;
74892;SDS011;63446;56.272;43.922;2023-07-20T08:17:43;9.65;;;1.77;;
74892;SDS011;63446;56.272;43.922;2023-07-20T08:20:12;4.10;;;1.40;;
74892;SDS011;63446;56.272;43.922;2023-07-20T08:22:39;7.18;;;1.45;;
74892;SDS011;63446;56.272;43.922;2023-07-20T08:25:06;6.95;;;1.60;;
74892;SDS011;63446;56.272;43.922;2023-07-20T08:27:32;4.97;;;1.67;;
74892;SDS011;63446;56.272;43.922;2023-07-20T08:29:57;4.88;;;1.65;;
74892;SDS011;63446;56.272;43.922;2023-07-20T08:32:23;5.07;;;1.40;;
74892;SDS011;63446;56.272;43.922;2023-07-20T08:34:49;5.00;;;1.40;;
74892;SDS011;63446;56.272;43.922;2023-07-20T08:37:15;6.80;;;1.50;;
74892;SDS011;63446;56.272;43.922;2023-07-20T08:39:41;5.97;;;1.40;;
74892;SDS011;63446;56.272;43.922;2023-07-20T08:42:08;7.20;;;1.35;;
74892;SDS011;63446;56.272;43.922;2023-07-20T08:44:39;3.95;;;1.40;;
74892;SDS011;63446;56.272;43.922;2023-07-20T08:47:06;4.35;;;1.38;;
74892;SDS011;63446;56.272;43.922;2023-07-20T08:49:34;7.73;;;1.40;;
74892;SDS011;63446;56.272;43.922;2023-07-20T08:52:01;8.10;;;1.50;;
74892;SDS011;63446;56.272;43.922;2023-07-20T08:54:30;5.80;;;1.50;;
74892;SDS011;63446;56.272;43.922;2023-07-20T08:57:04;6.25;;;1.48;;
74892;SDS011;63446;56.272;43.922;2023-07-20T08:59:31;6.50;;;1.50;;
74892;SDS011;63446;56.272;43.922;2023-07-20T09:01:58;3.83;;;1.27;;
74892;SDS011;63446;56.272;43.922;2023-07-20T09:04:26;4.90;;;1.38;;
74892;SDS011;63446;56.272;43.922;2023-07-20T09:06:52;4.30;;;1.58;;
74892;SDS011;63446;56.272;43.922;2023-07-20T09:09:18;4.15;;;1.52;;
74892;SDS011;63446;56.272;43.922;2023-07-20T09:11:47;4.60;;;1.40;;
74892;SDS011;63446;56.272;43.922;2023-07-20T09:14:15;4.57;;;1.50;;
74892;SDS011;63446;56.272;43.922;2023-07-20T09:16:50;7.63;;;1.73;;
74892;SDS011;63446;56.272;43.922;2023-07-20T09:19:17;3.85;;;1.38;;
74892;SDS011;63446;56.272;43.922;2023-07-20T09:21:44;3.77;;;1.50;;
74892;SDS011;63446;56.272;43.922;2023-07-20T09:24:13;3.38;;;1.40;;
74892;SDS011;63446;56.272;43.922;2023-07-20T09:26:42;5.13;;;1.52;;
74892;SDS011;63446;56.272;43.922;2023-07-20T09:29:09;4.82;;;1.40;;
74892;SDS011;63446;56.272;43.922;2023-07-20T09:31:38;4.95;;;1.30;;
74892;SDS011;63446;56.272;43.922;2023-07-20T09:34:06;4.77;;;1.30;;
74892;SDS011;63446;56.272;43.922;2023-07-20T09:36:33;7.63;;;1.50;;
74892;SDS011;63446;56.272;43.922;2023-07-20T09:39:04;13.48;;;1.98;;
74892;SDS011;63446;56.272;43.922;2023-07-20T09:41:39;25.27;;;2.38;;
74892;SDS011;63446;56.272;43.922;2023-07-20T09:44:06;5.05;;;1.38;;
74892;SDS011;63446;56.272;43.922;2023-07-20T09:46:46;5.97;;;1.70;;
74892;SDS011;63446;56.272;43.922;2023-07-20T09:49:13;4.20;;;1.10;;
74892;SDS011;63446;56.272;43.922;2023-07-20T09:51:39;5.38;;;1.15;;
74892;SDS011;63446;56.272;43.922;2023-07-20T09:54:08;8.25;;;1.60;;
74892;SDS011;63446;56.272;43.922;2023-07-20T09:56:34;5.65;;;1.30;;
74892;SDS011;63446;56.272;43.922;2023-07-20T09:59:00;6.37;;;1.90;;
74892;SDS011;63446;56.272;43.922;2023-07-20T10:01:26;14.90;;;1.50;;
74892;SDS011;63446;56.272;43.922;2023-07-20T10:03:55;6.47;;;1.60;;
74892;SDS011;63446;56.272;43.922;2023-07-20T10:06:24;7.90;;;1.58;;
74892;SDS011;63446;56.272;43.922;2023-07-20T10:08:54;6.23;;;1.70;;
74892;SDS011;63446;56.272;43.922;2023-07-20T10:11:25;8.85;;;1.77;;
74892;SDS011;63446;56.272;43.922;2023-07-20T10:13:53;12.98;;;2.40;;
74892;SDS011;63446;56.272;43.922;2023-07-20T10:16:58;8.50;;;2.00;;
74892;SDS011;63446;56.272;43.922;2023-07-20T10:19:22;6.97;;;2.15;;
74892;SDS011;63446;56.272;43.922;2023-07-20T10:22:24;7.07;;;2.30;;
74892;SDS011;63446;56.272;43.922;2023-07-20T10:24:53;7.65;;;2.22;;
74892;SDS011;63446;56.272;43.922;2023-07-20T10:27:22;4.82;;;2.08;;
74892;SDS011;63446;56.272;43.922;2023-07-20T10:29:49;6.93;;;2.50;;
74892;SDS011;63446;56.272;43.922;2023-07-20T10:32:16;5.00;;;2.20;;
74892;SDS011;63446;56.272;43.922;2023-07-20T10:34:50;7.93;;;2.20;;
74892;SDS011;63446;56.272;43.922;2023-07-20T10:43:02;5.13;;;1.70;;
74892;SDS011;63446;56.272;43.922;2023-07-20T10:45:34;8.48;;;1.98;;
74892;SDS011;63446;56.272;43.922;2023-07-20T10:48:25;5.53;;;1.60;;
74892;SDS011;63446;56.272;43.922;2023-07-20T10:53:55;13.18;;;2.17;;
74892;SDS011;63446;56.272;43.922;2023-07-20T10:56:25;10.95;;;2.33;;
74892;SDS011;63446;56.272;43.922;2023-07-20T10:58:56;12.30;;;2.97;;
74892;SDS011;63446;56.272;43.922;2023-07-20T11:01:28;10.57;;;2.40;;
74892;SDS011;63446;56.272;43.922;2023-07-20T11:03:58;13.00;;;2.65;;
74892;SDS011;63446;56.272;43.922;2023-07-20T11:09:03;7.73;;;2.30;;
74892;SDS011;63446;56.272;43.922;2023-07-20T11:11:43;10.05;;;2.28;;
74892;SDS011;63446;56.272;43.922;2023-07-20T11:14:22;6.60;;;2.15;;
74892;SDS011;63446;56.272;43.922;2023-07-20T11:16:50;8.13;;;2.15;;
74892;SDS011;63446;56.272;43.922;2023-07-20T11:19:17;9.48;;;1.88;;
74892;SDS011;63446;56.272;43.922;2023-07-20T11:21:45;4.23;;;1.70;;
74892;SDS011;63446;56.272;43.922;2023-07-20T11:24:15;9.73;;;2.10;;
74892;SDS011;63446;56.272;43.922;2023-07-20T11:26:42;8.50;;;1.90;;
74892;SDS011;63446;56.272;43.922;2023-07-20T11:29:13;8.43;;;1.63;;
74892;SDS011;63446;56.272;43.922;2023-07-20T11:31:40;5.57;;;1.63;;
74892;SDS011;63446;56.272;43.922;2023-07-20T11:34:10;5.57;;;1.33;;
74892;SDS011;63446;56.272;43.922;2023-07-20T11:36:42;6.30;;;1.00;;
74892;SDS011;63446;56.272;43.922;2023-07-20T11:39:14;9.30;;;1.38;;
74892;SDS011;63446;56.272;43.922;2023-07-20T11:41:44;7.03;;;1.50;;
74892;SDS011;63446;56.272;43.922;2023-07-20T11:44:16;6.50;;;1.20;;
74892;SDS011;63446;56.272;43.922;2023-07-20T11:46:43;6.30;;;1.30;;
74892;SDS011;63446;56.272;43.922;2023-07-20T11:49:13;5.97;;;1.00;;
74892;SDS011;63446;56.272;43.922;2023-07-20T11:51:39;6.60;;;1.20;;
74892;SDS011;63446;56.272;43.922;2023-07-20T11:54:07;5.53;;;1.50;;
74892;SDS011;63446;56.272;43.922;2023-07-20T11:56:34;4.83;;;1.60;;
74892;SDS011;63446;56.272;43.922;2023-07-20T11:59:00;3.95;;;1.38;;
74892;SDS011;63446;56.272;43.922;2023-07-20T12:01:29;6.32;;;1.83;;
74892;SDS011;63446;56.272;43.922;2023-07-20T12:04:00;7.15;;;1.85;;
74892;SDS011;63446;56.272;43.922;2023-07-20T12:06:27;7.77;;;2.00;;
74892;SDS011;63446;56.272;43.922;2023-07-20T12:08:54;7.22;;;2.00;;
74892;SDS011;63446;56.272;43.922;2023-07-20T12:11:34;7.53;;;2.40;;
74892;SDS011;63446;56.272;43.922;2023-07-20T12:14:02;5.30;;;1.83;;
74892;SDS011;63446;56.272;43.922;2023-07-20T12:16:30;7.50;;;1.85;;
74892;SDS011;63446;56.272;43.922;2023-07-20T12:19:02;5.27;;;1.90;;
74892;SDS011;63446;56.272;43.922;2023-07-20T12:21:30;4.68;;;1.63;;
74892;SDS011;63446;56.272;43.922;2023-07-20T12:23:57;5.20;;;1.92;;
74892;SDS011;63446;56.272;43.922;2023-07-20T12:26:24;4.32;;;1.85;;
74892;SDS011;63446;56.272;43.922;2023-07-20T12:28:51;7.20;;;2.03;;
74892;SDS011;63446;56.272;43.922;2023-07-20T12:31:18;4.90;;;1.83;;
74892;SDS011;63446;56.272;43.922;2023-07-20T12:33:44;10.20;;;1.80;;
74892;SDS011;63446;56.272;43.922;2023-07-20T12:36:10;5.32;;;2.10;;
74892;SDS011;63446;56.272;43.922;2023-07-20T12:38:36;4.07;;;2.00;;
74892;SDS011;63446;56.272;43.922;2023-07-20T12:41:02;8.87;;;2.40;;
74892;SDS011;63446;56.272;43.922;2023-07-20T12:43:29;18.33;;;3.43;;
74892;SDS011;63446;56.272;43.922;2023-07-20T12:45:55;10.13;;;2.80;;
74892;SDS011;63446;56.272;43.922;2023-07-20T12:48:21;11.52;;;2.95;;
74892;SDS011;63446;56.272;43.922;2023-07-20T12:50:48;5.35;;;2.33;;
74892;SDS011;63446;56.272;43.922;2023-07-20T12:53:15;5.88;;;2.20;;
74892;SDS011;63446;56.272;43.922;2023-07-20T12:55:43;6.40;;;2.30;;
74892;SDS011;63446;56.272;43.922;2023-07-20T12:58:11;4.97;;;2.10;;
74892;SDS011;63446;56.272;43.922;2023-07-20T13:00:37;4.65;;;1.60;;
74892;SDS011;63446;56.272;43.922;2023-07-20T13:03:04;3.80;;;1.20;;
74892;SDS011;63446;56.272;43.922;2023-07-20T13:05:32;4.30;;;1.23;;
74892;SDS011;63446;56.272;43.922;2023-07-20T13:07:59;3.47;;;1.30;;
74892;SDS011;63446;56.272;43.922;2023-07-20T13:10:25;4.03;;;1.15;;
74892;SDS011;63446;56.272;43.922;2023-07-20T13:12:50;5.00;;;1.33;;
74892;SDS011;63446;56.272;43.922;2023-07-20T13:15:17;4.40;;;1.30;;
74892;SDS011;63446;56.272;43.922;2023-07-20T13:17:43;3.70;;;1.50;;
74892;SDS011;63446;56.272;43.922;2023-07-20T13:20:09;4.80;;;1.53;;
74892;SDS011;63446;56.272;43.922;2023-07-20T13:22:37;3.83;;;1.30;;
74892;SDS011;63446;56.272;43.922;2023-07-20T13:25:03;5.63;;;1.48;;
74892;SDS011;63446;56.272;43.922;2023-07-20T13:27:32;4.40;;;1.40;;
74892;SDS011;63446;56.272;43.922;2023-07-20T13:29:58;5.65;;;1.98;;
74892;SDS011;63446;56.272;43.922;2023-07-20T13:32:30;3.95;;;1.80;;
74892;SDS011;63446;56.272;43.922;2023-07-20T13:34:55;5.20;;;1.60;;
74892;SDS011;63446;56.272;43.922;2023-07-20T13:37:22;6.18;;;1.70;;
74892;SDS011;63446;56.272;43.922;2023-07-20T13:39:48;6.93;;;1.60;;
74892;SDS011;63446;56.272;43.922;2023-07-20T13:42:14;4.33;;;1.60;;
74892;SDS011;63446;56.272;43.922;2023-07-20T13:44:40;5.70;;;1.75;;
74892;SDS011;63446;56.272;43.922;2023-07-20T13:47:06;6.03;;;1.50;;
74892;SDS011;63446;56.272;43.922;2023-07-20T13:49:32;5.00;;;1.55;;
74892;SDS011;63446;56.272;43.922;2023-07-20T13:51:58;3.53;;;1.33;;
74892;SDS011;63446;56.272;43.922;2023-07-20T13:54:25;5.68;;;1.75;;
74892;SDS011;63446;56.272;43.922;2023-07-20T13:56:50;3.93;;;1.60;;
74892;SDS011;63446;56.272;43.922;2023-07-20T13:59:20;6.07;;;2.10;;
74892;SDS011;63446;56.272;43.922;2023-07-20T14:01:46;6.80;;;1.80;;
74892;SDS011;63446;56.272;43.922;2023-07-20T14:04:13;7.75;;;2.10;;
74892;SDS011;63446;56.272;43.922;2023-07-20T14:06:39;5.18;;;1.73;;
74892;SDS011;63446;56.272;43.922;2023-07-20T14:09:05;6.40;;;2.30;;
74892;SDS011;63446;56.272;43.922;2023-07-20T14:11:30;9.97;;;4.20;;
74892;SDS011;63446;56.272;43.922;2023-07-20T14:13:56;7.80;;;3.70;;
74892;SDS011;63446;56.272;43.922;2023-07-20T14:16:24;9.80;;;3.72;;
74892;SDS011;63446;56.272;43.922;2023-07-20T14:18:51;8.43;;;3.67;;
74892;SDS011;63446;56.272;43.922;2023-07-20T14:21:17;12.07;;;3.70;;
74892;SDS011;63446;56.272;43.922;2023-07-20T14:23:47;10.88;;;4.43;;
74892;SDS011;63446;56.272;43.922;2023-07-20T14:26:15;7.50;;;4.05;;
74892;SDS011;63446;56.272;43.922;2023-07-20T14:28:41;7.93;;;3.20;;
74892;SDS011;63446;56.272;43.922;2023-07-20T14:31:07;9.07;;;2.10;;
74892;SDS011;63446;56.272;43.922;2023-07-20T14:33:33;8.68;;;2.53;;
74892;SDS011;63446;56.272;43.922;2023-07-20T14:35:59;8.40;;;2.63;;
74892;SDS011;63446;56.272;43.922;2023-07-20T14:38:28;7.37;;;1.93;;
74892;SDS011;63446;56.272;43.922;2023-07-20T14:40:54;7.10;;;1.45;;
74892;SDS011;63446;56.272;43.922;2023-07-20T14:43:20;5.22;;;1.30;;
74892;SDS011;63446;56.272;43.922;2023-07-20T14:45:46;5.38;;;1.63;;
74892;SDS011;63446;56.272;43.922;2023-07-20T14:48:12;7.97;;;2.20;;
74892;SDS011;63446;56.272;43.922;2023-07-20T14:50:38;5.25;;;2.05;;
74892;SDS011;63446;56.272;43.922;2023-07-20T14:53:04;8.40;;;1.80;;
74892;SDS011;63446;56.272;43.922;2023-07-20T14:55:30;4.20;;;1.53;;